Time;durP1;ratioP1;P1;durP2;ratioP2;P2;SDS_P1;SDS_P2;PMS_P1;PMS_P2;Temp;Humidity;BMP_temperature;BMP_pressure;BME280_temperature;BME280_humidity;BME280_pressure;Samples;Min_cycle;Max_cycle;Signal;HPM_P1;HPM_P2
2021/09/07 00:00:04;;;;;;;20.50;15.20;;;;;;;13.49;61.70;101224.64;116605;1194;22629;-79
2021/09/07 00:03:07;;;;;;;18.60;14.60;;;;;;;13.45;61.79;101224.03;116538;1195;22914;-79
2021/09/07 00:05:48;;;;;;;17.20;13.30;;;;;;;13.42;61.98;101220.98;116497;1195;23640;-80
2021/09/07 00:08:31;;;;;;;17.50;14.70;;;;;;;13.41;62.09;101218.90;116635;1195;21923;-79
2021/09/07 00:11:12;;;;;;;21.00;15.30;;;;;;;13.39;62.18;101210.84;116709;1192;23648;-80
2021/09/07 00:13:46;;;;;;;;;;;;;;;13.39;62.25;101208.05;116754;1195;23049;-80
2021/09/07 00:16:18;;;;;;;19.30;13.90;;;;;;;13.32;62.58;101204.36;116546;1196;22601;-80
2021/09/07 00:19:00;;;;;;;20.30;14.20;;;;;;;13.29;62.42;101202.89;116488;1196;21892;-79
2021/09/07 00:22:11;;;;;;;18.50;13.40;;;;;;;13.28;62.49;101205.10;116390;1196;22329;-80
2021/09/07 00:24:45;;;;;;;19.50;13.20;;;;;;;13.28;62.63;101202.30;116307;1198;21951;-81
2021/09/07 00:27:27;;;;;;;16.60;13.60;;;;;;;13.27;62.67;101204.92;116317;1197;21910;-80
2021/09/07 00:30:13;;;;;;;;;;;;;;;13.27;62.72;101207.43;116233;1198;21886;-79
2021/09/07 00:32:51;;;;;;;19.50;12.20;;;;;;;13.18;62.83;101210.36;116291;1198;21881;-79
2021/09/07 00:35:32;;;;;;;17.90;13.20;;;;;;;13.19;62.94;101210.52;116332;1196;21897;-79
2021/09/07 00:38:11;;;;;;;16.70;12.50;;;;;;;13.21;63.09;101206.08;116426;1195;21888;-79
2021/09/07 00:40:45;;;;;;;15.40;11.60;;;;;;;13.22;63.01;101202.04;116571;1192;21904;-79
2021/09/07 00:43:16;;;;;;;19.90;12.30;;;;;;;13.24;63.07;101199.39;116510;1193;21892;-79
2021/09/07 00:45:48;;;;;;;17.60;11.80;;;;;;;13.25;63.08;101193.77;116516;1188;21895;-79
2021/09/07 00:48:31;;;;;;;18.00;12.20;;;;;;;13.26;63.03;101190.62;117134;1191;21885;-79
2021/09/07 00:51:09;;;;;;;16.60;13.10;;;;;;;13.23;62.86;101183.54;116504;1194;23600;-79
2021/09/07 00:53:47;;;;;;;15.60;11.60;;;;;;;13.24;62.97;101180.30;116531;1192;23738;-79
2021/09/07 00:56:32;;;;;;;16.10;11.20;;;;;;;13.24;62.96;101177.48;116656;1191;21897;-80
2021/09/07 00:59:31;;;;;;;18.10;11.10;;;;;;;13.22;62.89;101176.40;116928;1193;21903;-80
2021/09/07 01:02:10;;;;;;;14.80;10.10;;;;;;;13.20;62.79;101178.05;117105;1191;22524;-80
2021/09/07 01:04:59;;;;;;;16.20;11.50;;;;;;;13.17;62.83;101176.92;116745;1193;23444;-80
2021/09/07 01:07:33;;;;;;;15.50;11.60;;;;;;;13.16;62.85;101176.95;116947;1193;24153;-80
2021/09/07 01:10:26;;;;;;;20.90;10.60;;;;;;;13.18;62.88;101176.77;116864;1191;24228;-80
2021/09/07 01:13:03;;;;;;;13.90;9.80;;;;;;;13.17;62.79;101175.51;116941;1193;23748;-80
2021/09/07 01:15:39;;;;;;;14.40;10.60;;;;;;;13.16;62.80;101177.91;116830;1191;22616;-80
2021/09/07 01:18:31;;;;;;;15.80;10.80;;;;;;;13.16;62.80;101174.04;116915;1191;23464;-81
2021/09/07 01:21:09;;;;;;;12.70;9.00;;;;;;;13.15;62.87;101174.10;116810;1188;22373;-79
2021/09/07 01:23:48;;;;;;;12.90;10.00;;;;;;;13.15;62.82;101171.95;116474;1196;21944;-79
2021/09/07 01:26:22;;;;;;;14.40;10.00;;;;;;;13.17;62.93;101171.95;116518;1196;22342;-79
2021/09/07 01:29:01;;;;;;;15.30;10.20;;;;;;;13.17;62.86;101167.14;116543;1194;22996;-80
2021/09/07 01:31:42;;;;;;;14.20;10.60;;;;;;;13.17;62.79;101162.80;116557;1195;22914;-80
2021/09/07 01:34:27;;;;;;;16.90;10.30;;;;;;;13.15;62.76;101165.48;116606;1194;21993;-78
2021/09/07 01:37:08;;;;;;;15.80;11.20;;;;;;;13.13;62.85;101166.94;116583;1195;21907;-79
2021/09/07 01:39:58;;;;;;;19.10;10.40;;;;;;;13.08;62.82;101166.94;116532;1192;21898;-79
2021/09/07 01:42:32;;;;;;;15.20;10.80;;;;;;;13.05;62.92;101167.73;116524;1193;21894;-79
2021/09/07 01:45:11;;;;;;;15.30;12.10;;;;;;;13.03;63.12;101165.84;116837;1192;21894;-79
2021/09/07 01:47:43;;;;;;;16.20;12.50;;;;;;;13.03;63.19;101167.62;116924;1190;22005;-79
2021/09/07 01:50:24;;;;;;;15.50;10.40;;;;;;;13.06;63.44;101174.55;116891;1193;22147;-79
2021/09/07 01:52:57;;;;;;;17.90;11.00;;;;;;;13.08;63.43;101174.66;116712;1192;22911;-80
2021/09/07 01:55:31;;;;;;;15.30;11.00;;;;;;;13.09;63.34;101170.55;116840;1191;21894;-79
2021/09/07 01:58:07;;;;;;;15.00;10.70;;;;;;;13.07;63.24;101161.92;116656;1191;21931;-80
2021/09/07 02:00:44;;;;;;;17.50;11.70;;;;;;;13.02;63.36;101151.84;116969;1194;22973;-79
2021/09/07 02:03:31;;;;;;;14.60;11.20;;;;;;;12.97;63.45;101146.69;116767;1191;23024;-79
2021/09/07 02:06:20;;;;;;;18.20;11.50;;;;;;;12.93;63.61;101144.46;116548;1194;21894;-79
2021/09/07 02:09:19;;;;;;;15.50;11.00;;;;;;;12.90;63.72;101143.17;116560;1196;22918;-78
2021/09/07 02:12:11;;;;;;;23.90;14.10;;;;;;;12.88;63.85;101139.35;116441;1196;23647;-79
2021/09/07 02:14:44;;;;;;;20.80;11.60;;;;;;;12.86;63.94;101137.60;116625;1192;23531;-80
2021/09/07 02:17:30;;;;;;;;;;;;;;;;;;;;;
2021/09/07 02:20:12;;;;;;;16.30;12.30;;;;;;;12.85;64.03;101141.30;116490;1191;23485;-79
2021/09/07 02:22:47;;;;;;;21.30;13.60;;;;;;;12.79;64.20;101141.89;116455;1189;23568;-79
2021/09/07 02:25:21;;;;;;;;;;;;;;;12.76;64.34;101139.53;116416;1195;23355;-79
2021/09/07 02:28:00;;;;;;;22.20;14.50;;;;;;;12.66;64.62;101136.39;116226;1198;23481;-81
2021/09/07 02:30:32;;;;;;;20.60;13.60;;;;;;;12.62;64.84;101134.17;116140;1197;21915;-79
2021/09/07 02:33:16;;;;;;;16.60;12.80;;;;;;;12.59;64.85;101127.38;116302;1198;23457;-80
2021/09/07 02:35:48;;;;;;;17.00;13.30;;;;;;;12.56;65.03;101125.94;116153;1192;21913;-79
2021/09/07 02:38:27;;;;;;;20.30;13.30;;;;;;;12.56;65.18;101130.08;116141;1196;23523;-79
2021/09/07 02:40:59;;;;;;;18.40;13.70;;;;;;;12.54;65.54;101128.15;116197;1198;21945;-79
2021/09/07 02:43:50;;;;;;;17.90;14.00;;;;;;;12.54;65.66;101124.80;116240;1195;23456;-79
2021/09/07 02:46:27;;;;;;;16.60;12.90;;;;;;;12.51;65.66;101124.73;116499;1194;23596;-78
2021/09/07 02:49:03;;;;;;;17.80;12.50;;;;;;;12.49;65.85;101123.01;116639;1191;22694;-79
2021/09/07 02:51:39;;;;;;;14.20;12.20;;;;;;;12.48;66.02;101121.35;116582;1192;22212;-79
2021/09/07 02:54:11;;;;;;;21.10;12.90;;;;;;;12.49;66.10;101119.43;116597;1193;22739;-79
2021/09/07 02:56:43;;;;;;;20.40;13.00;;;;;;;12.49;66.12;101120.19;116475;1194;23510;-79
2021/09/07 02:59:15;;;;;;;17.20;13.00;;;;;;;12.47;66.00;101116.47;116360;1191;22609;-79
2021/09/07 03:01:52;;;;;;;19.40;12.60;;;;;;;12.43;66.07;101117.02;116518;1196;23639;-79
2021/09/07 03:04:28;;;;;;;22.20;14.80;;;;;;;12.41;66.24;101110.40;116365;1194;21934;-79
2021/09/07 03:07:08;;;;;;;15.00;12.90;;;;;;;12.40;66.46;101107.64;116282;1194;23483;-79
2021/09/07 03:09:45;;;;;;;17.30;15.40;;;;;;;12.39;66.33;101105.52;116351;1194;24204;-80
2021/09/07 03:12:26;;;;;;;21.50;18.10;;;;;;;12.38;66.53;101112.80;116350;1194;21880;-79
2021/09/07 03:15:09;;;;;;;20.60;16.80;;;;;;;12.39;66.54;101113.27;116547;1194;22011;-79
2021/09/07 03:17:40;;;;;;;17.90;14.80;;;;;;;12.36;66.57;101112.20;116528;1195;22453;-80
2021/09/07 03:20:21;;;;;;;21.20;14.90;;;;;;;12.34;66.66;101116.09;116453;1195;22619;-80
2021/09/07 03:23:04;;;;;;;20.60;13.90;;;;;;;12.34;66.73;101118.45;116723;1192;24279;-79
2021/09/07 03:25:36;;;;;;;16.10;13.50;;;;;;;12.33;66.70;101117.79;116643;1191;22730;-80
2021/09/07 03:28:13;;;;;;;19.00;13.90;;;;;;;12.31;66.83;101120.42;116639;1189;21880;-79
2021/09/07 03:30:46;;;;;;;19.30;13.60;;;;;;;12.29;66.71;101119.23;116906;1192;21882;-80
2021/09/07 03:33:32;;;;;;;18.20;13.80;;;;;;;12.27;66.85;101119.63;116596;1190;23001;-78
2021/09/07 03:36:19;;;;;;;18.70;13.00;;;;;;;12.23;66.84;101117.71;116647;1192;21923;-79
2021/09/07 03:38:52;;;;;;;19.80;14.60;;;;;;;12.22;66.90;101115.23;116601;1189;22555;-79
2021/09/07 03:41:31;;;;;;;15.80;11.90;;;;;;;12.20;67.03;101120.55;116807;1190;21958;-79
2021/09/07 03:44:04;;;;;;;17.00;12.70;;;;;;;12.18;67.05;101121.30;116564;1190;22623;-78
2021/09/07 03:46:38;;;;;;;17.00;12.80;;;;;;;12.15;67.08;101123.67;116502;1192;23547;-79
2021/09/07 03:49:19;;;;;;;18.10;13.00;;;;;;;12.14;67.23;101123.08;116585;1191;21893;-79
2021/09/07 03:51:54;;;;;;;14.90;11.80;;;;;;;12.13;67.24;101121.45;116589;1193;21921;-80
2021/09/07 03:54:39;;;;;;;20.50;14.00;;;;;;;12.12;67.44;101120.67;116600;1192;22132;-79
2021/09/07 03:57:14;;;;;;;18.10;12.70;;;;;;;12.13;67.54;101119.16;116281;1196;21902;-80
2021/09/07 03:59:54;;;;;;;17.80;13.30;;;;;;;12.12;67.42;101114.27;116475;1192;23679;-80
2021/09/07 04:02:41;;;;;;;18.60;12.60;;;;;;;12.10;67.57;101110.86;116699;1193;21891;-80
2021/09/07 04:05:35;;;;;;;17.60;13.30;;;;;;;12.07;67.49;101110.59;116869;1191;22367;-80
2021/09/07 04:08:13;;;;;;;20.10;12.40;;;;;;;12.05;67.65;101114.30;116948;1193;22950;-80
2021/09/07 04:10:50;;;;;;;18.60;14.40;;;;;;;12.06;67.79;101110.92;116823;1192;21897;-77
2021/09/07 04:13:26;;;;;;;21.70;17.90;;;;;;;12.07;67.82;101113.41;116467;1192;22008;-78
2021/09/07 04:16:05;;;;;;;20.40;15.80;;;;;;;12.09;67.97;101118.34;116404;1195;21986;-78
2021/09/07 04:18:38;;;;;;;18.10;14.10;;;;;;;12.11;67.90;101118.81;116398;1193;22949;-79
2021/09/07 04:21:12;;;;;;;19.30;14.10;;;;;;;12.13;67.92;101113.34;116480;1194;21930;-80
2021/09/07 04:23:50;;;;;;;26.60;17.20;;;;;;;12.11;67.75;101110.65;116502;1192;22924;-79
2021/09/07 04:26:33;;;;;;;22.50;14.70;;;;;;;12.07;67.63;101113.81;116476;1193;23261;-79
2021/09/07 04:29:16;;;;;;;19.30;13.60;;;;;;;12.04;67.88;101114.63;116373;1194;21897;-79
2021/09/07 04:32:06;;;;;;;17.30;13.40;;;;;;;12.02;67.96;101114.48;116524;1194;22942;-79
2021/09/07 04:34:56;;;;;;;16.70;12.50;;;;;;;12.00;68.00;101112.74;116693;1190;21893;-79
2021/09/07 04:37:37;;;;;;;18.20;12.00;;;;;;;11.99;67.98;101115.95;116786;1191;21894;-80
2021/09/07 04:40:22;;;;;;;18.40;12.50;;;;;;;12.01;68.24;101121.07;116654;1190;22907;-80
2021/09/07 04:43:11;;;;;;;17.10;12.80;;;;;;;12.05;68.24;101118.70;116609;1191;21886;-79
2021/09/07 04:45:55;;;;;;;20.90;12.80;;;;;;;12.10;68.22;101119.85;116737;1190;22897;-79
2021/09/07 04:48:48;;;;;;;16.30;11.50;;;;;;;12.13;68.23;101115.42;116896;1190;22799;-80
2021/09/07 04:51:24;;;;;;;17.60;12.00;;;;;;;12.14;68.17;101118.36;116913;1190;23546;-79
2021/09/07 04:54:03;;;;;;;17.30;12.50;;;;;;;12.16;68.13;101120.23;116670;1196;22922;-79
2021/09/07 04:56:33;;;;;;;20.40;12.60;;;;;;;12.21;68.09;101123.60;116234;1198;23482;-79
2021/09/07 04:59:06;;;;;;;17.00;11.40;;;;;;;12.26;68.05;101129.84;116108;1197;21908;-79
2021/09/07 05:01:44;;;;;;;21.60;12.70;;;;;;;12.26;67.82;101125.73;116070;1197;21890;-79
2021/09/07 05:04:17;;;;;;;25.30;12.70;;;;;;;12.28;67.81;101129.63;116204;1198;21890;-80
2021/09/07 05:07:04;;;;;;;19.60;12.00;;;;;;;12.31;67.81;101135.73;116239;1194;23554;-79
2021/09/07 05:09:39;;;;;;;17.60;13.20;;;;;;;12.33;67.80;101146.40;116212;1195;23458;-80
2021/09/07 05:12:16;;;;;;;16.20;11.70;;;;;;;12.38;67.81;101144.96;116253;1196;23548;-80
2021/09/07 05:14:52;;;;;;;22.10;12.40;;;;;;;12.42;67.61;101137.61;116788;1193;22185;-80
2021/09/07 05:17:24;;;;;;;16.80;12.00;;;;;;;12.46;67.54;101134.45;116568;1190;21898;-80
2021/09/07 05:19:59;;;;;;;17.40;12.70;;;;;;;12.50;67.53;101135.42;116640;1191;21897;-79
2021/09/07 05:22:49;;;;;;;21.50;13.80;;;;;;;12.51;67.28;101141.49;116474;1194;21906;-79
2021/09/07 05:25:30;;;;;;;22.30;13.70;;;;;;;12.53;67.39;101140.94;116527;1194;21913;-81
2021/09/07 05:28:02;;;;;;;20.10;14.00;;;;;;;12.59;67.43;101137.28;116240;1198;22284;-79
2021/09/07 05:30:34;;;;;;;19.90;13.20;;;;;;;12.66;67.35;101137.80;116384;1195;21902;-81
2021/09/07 05:33:13;;;;;;;23.30;14.00;;;;;;;12.74;67.35;101135.69;116478;1198;22016;-81
2021/09/07 05:35:57;;;;;;;24.60;14.60;;;;;;;12.82;67.11;101132.59;116243;1192;21958;-79
2021/09/07 05:38:45;;;;;;;21.00;13.40;;;;;;;12.81;66.74;101137.12;115961;1202;22973;-78
2021/09/07 05:41:16;;;;;;;21.90;13.70;;;;;;;12.80;66.67;101136.04;115790;1201;22732;-79
2021/09/07 05:43:58;;;;;;;33.10;14.70;;;;;;;12.80;66.65;101132.18;115783;1201;21909;-80
2021/09/07 05:46:34;;;;;;;30.70;17.00;;;;;;;12.81;66.56;101136.23;115760;1198;21918;-80
2021/09/07 05:49:16;;;;;;;21.20;14.70;;;;;;;12.81;66.56;101136.95;116166;1193;22010;-81
2021/09/07 05:51:59;;;;;;;21.70;14.20;;;;;;;12.83;66.54;101130.93;116175;1197;21939;-80
2021/09/07 05:54:44;;;;;;;25.20;14.90;;;;;;;12.84;66.68;101129.53;116201;1199;22921;-80
2021/09/07 05:57:36;;;;;;;17.50;13.30;;;;;;;12.91;66.91;101133.86;116387;1193;21902;-80
2021/09/07 06:00:24;;;;;;;25.10;13.90;;;;;;;13.04;67.05;101136.03;116525;1195;21879;-82
2021/09/07 06:03:04;;;;;;;25.90;13.30;;;;;;;13.19;66.92;101134.94;116577;1197;21889;-81
2021/09/07 06:05:51;;;;;;;26.50;14.70;;;;;;;13.35;66.70;101139.62;116638;1193;21881;-81
2021/09/07 06:09:02;;;;;;;27.10;14.50;;;;;;;13.55;66.76;101137.61;116673;1193;22445;-80
2021/09/07 06:11:40;;;;;;;23.30;12.70;;;;;;;13.82;66.30;101138.32;116674;1193;22635;-80
2021/09/07 06:14:41;;;;;;;27.20;14.90;;;;;;;14.04;65.91;101134.27;116517;1190;21908;-81
2021/09/07 06:17:20;;;;;;;21.00;13.70;;;;;;;14.34;65.65;101133.66;116599;1193;22808;-80
2021/09/07 06:19:53;;;;;;;17.40;13.20;;;;;;;14.56;64.37;101137.70;116479;1196;21882;-79
2021/09/07 06:22:59;;;;;;;;;;;;;;;;;;;;;
2021/09/07 06:25:58;;;;;;;17.80;12.50;;;;;;;14.94;63.29;101143.81;116508;1197;22821;-82
2021/09/07 06:28:43;;;;;;;22.80;14.00;;;;;;;15.08;62.34;101142.02;116705;1193;21901;-80
2021/09/07 06:31:30;;;;;;;20.80;12.90;;;;;;;15.18;61.82;101147.64;116251;1198;21906;-81
2021/09/07 06:34:26;;;;;;;19.40;12.90;;;;;;;15.31;61.21;101156.54;116519;1197;21916;-79
2021/09/07 06:36:57;;;;;;;18.40;12.00;;;;;;;15.38;60.63;101160.31;116528;1192;21896;-80
2021/09/07 06:39:32;;;;;;;19.60;13.00;;;;;;;15.45;60.27;101160.79;116240;1193;21903;-79
2021/09/07 06:42:09;;;;;;;17.10;11.70;;;;;;;15.53;59.99;101165.30;116439;1196;21981;-79
2021/09/07 06:44:41;;;;;;;18.70;11.80;;;;;;;15.57;59.18;101165.57;116041;1199;21863;-81
2021/09/07 06:47:16;;;;;;;14.70;11.00;;;;;;;15.58;59.04;101168.11;116077;1196;21913;-80
2021/09/07 06:49:46;;;;;;;15.00;10.60;;;;;;;15.70;59.31;101165.84;116164;1195;22855;-79
2021/09/07 06:52:18;;;;;;;16.80;11.60;;;;;;;15.95;59.73;101168.14;116267;1196;22744;-79
2021/09/07 06:54:55;;;;;;;17.80;10.90;;;;;;;16.33;59.26;101171.15;115929;1198;21905;-79
2021/09/07 06:58:01;;;;;;;;;;;;;;;;;;;;;
2021/09/07 07:01:16;;;;;;;15.40;9.70;;;;;;;17.33;57.68;101175.59;116248;1194;21992;-79
2021/09/07 07:03:57;;;;;;;14.10;10.10;;;;;;;17.78;55.91;101176.69;116383;1194;21912;-80
2021/09/07 07:06:41;;;;;;;14.00;9.90;;;;;;;17.89;53.40;101176.35;116621;1193;23570;-79
2021/09/07 07:09:14;;;;;;;14.30;9.80;;;;;;;18.01;53.77;101177.95;116080;1194;21913;-80
2021/09/07 07:12:13;;;;;;;14.50;10.30;;;;;;;18.38;54.15;101180.23;116060;1198;22937;-80
2021/09/07 07:15:10;;;;;;;18.70;10.20;;;;;;;18.81;53.46;101179.23;115909;1198;21901;-78
2021/09/07 07:18:08;;;;;;;13.30;11.20;;;;;;;19.26;52.01;101181.75;115973;1197;23627;-78
2021/09/07 07:21:16;;;;;;;;;;;;;;;;;;;;;
2021/09/07 07:24:00;;;;;;;19.10;10.80;;;;;;;19.56;50.12;101182.96;115893;1198;21961;-79
2021/09/07 07:27:07;;;;;;;14.60;10.40;;;;;;;19.76;49.62;101183.88;115871;1199;21972;-82
2021/09/07 07:29:55;;;;;;;13.10;10.00;;;;;;;19.97;49.32;101189.29;115681;1201;23516;-79
2021/09/07 07:32:28;;;;;;;15.40;10.00;;;;;;;20.28;49.47;101190.73;115801;1199;21890;-78
2021/09/07 07:35:00;;;;;;;14.40;9.40;;;;;;;20.64;48.61;101192.72;115476;1201;23678;-80
2021/09/07 07:37:31;;;;;;;13.80;9.60;;;;;;;20.87;46.96;101197.73;115497;1198;21916;-78
2021/09/07 07:40:01;;;;;;;13.60;10.80;;;;;;;20.93;46.21;101200.15;115660;1197;24355;-79
2021/09/07 07:42:31;;;;;;;16.10;10.50;;;;;;;21.03;46.16;101201.23;116113;1196;23442;-78
2021/09/07 07:45:00;;;;;;;16.30;9.80;;;;;;;21.10;45.85;101205.94;116181;1195;21875;-78
2021/09/07 07:47:31;;;;;;;16.30;10.60;;;;;;;21.32;46.34;101209.95;115677;1200;22352;-78
2021/09/07 07:50:06;;;;;;;15.20;11.30;;;;;;;21.56;45.60;101209.48;116118;1194;21906;-77
2021/09/07 07:52:43;;;;;;;16.90;10.30;;;;;;;21.78;44.85;101208.14;116164;1197;23480;-80
2021/09/07 07:55:13;;;;;;;15.00;10.50;;;;;;;21.95;44.56;101208.27;116275;1193;23572;-78
2021/09/07 07:57:43;;;;;;;20.10;17.90;;;;;;;22.14;43.94;101205.54;116305;1192;23589;-78
2021/09/07 08:00:13;;;;;;;12.10;10.70;;;;;;;22.28;43.46;101205.38;116219;1191;22905;-78
2021/09/07 08:02:42;;;;;;;15.30;9.80;;;;;;;22.45;43.20;101204.64;116187;1194;24311;-78
2021/09/07 08:05:34;;;;;;;13.40;9.60;;;;;;;22.49;42.22;101202.90;116390;1189;21890;-79
2021/09/07 08:08:24;;;;;;;12.40;10.60;;;;;;;22.61;43.12;101206.11;116611;1187;21873;-80
2021/09/07 08:11:07;;;;;;;15.40;9.60;;;;;;;22.87;42.67;101205.73;116535;1190;21889;-79
2021/09/07 08:13:37;;;;;;;17.80;13.90;;;;;;;23.12;42.46;101210.41;116729;1190;21894;-80
2021/09/07 08:16:12;;;;;;;13.90;10.20;;;;;;;23.36;41.81;101212.90;116605;1193;22980;-78
2021/09/07 08:18:45;;;;;;;10.50;8.60;;;;;;;23.43;40.32;101212.67;116651;1190;21860;-81
2021/09/07 08:21:30;;;;;;;12.40;9.40;;;;;;;23.40;40.19;101209.19;116846;1190;22246;-80
2021/09/07 08:24:07;;;;;;;12.60;9.80;;;;;;;23.64;40.52;101213.42;116510;1190;22790;-80
2021/09/07 08:26:37;;;;;;;11.80;10.50;;;;;;;23.85;40.07;101216.35;116528;1193;22840;-80
2021/09/07 08:29:09;;;;;;;11.30;9.40;;;;;;;24.01;39.39;101214.95;116205;1196;24262;-81
2021/09/07 08:31:47;;;;;;;12.00;9.30;;;;;;;24.06;38.54;101215.88;115842;1199;23565;-78
2021/09/07 08:34:18;;;;;;;;;;;;;;;23.96;38.39;101214.83;115861;1197;22876;-78
2021/09/07 08:36:47;;;;;;;12.60;9.30;;;;;;;23.70;38.42;101213.23;116075;1196;21902;-77
2021/09/07 08:39:17;;;;;;;14.20;11.80;;;;;;;23.51;39.06;101210.09;116085;1196;23561;-79
2021/09/07 08:41:47;;;;;;;11.30;9.00;;;;;;;23.44;39.26;101206.96;116097;1193;22741;-79
2021/09/07 08:44:22;;;;;;;11.00;9.90;;;;;;;23.25;38.97;101208.80;116054;1196;22923;-79
2021/09/07 08:46:54;;;;;;;16.10;10.00;;;;;;;22.98;39.70;101206.88;116150;1193;21908;-77
2021/09/07 08:49:25;;;;;;;16.70;10.70;;;;;;;23.10;40.67;101207.45;116659;1193;22031;-79
2021/09/07 08:51:56;;;;;;;14.60;9.60;;;;;;;23.26;39.87;101209.95;116725;1190;21885;-78
2021/09/07 08:54:25;;;;;;;14.40;9.90;;;;;;;23.32;39.35;101212.77;116662;1191;22090;-79
2021/09/07 08:56:55;;;;;;;14.50;10.20;;;;;;;23.33;39.58;101210.52;116488;1192;23574;-79
2021/09/07 08:59:25;;;;;;;14.60;10.70;;;;;;;23.50;39.44;101210.33;116984;1190;21941;-79
2021/09/07 09:01:56;;;;;;;13.70;10.40;;;;;;;23.60;39.13;101210.73;116708;1192;23533;-79
2021/09/07 09:04:32;;;;;;;14.00;9.40;;;;;;;23.76;39.01;101213.10;116462;1195;21949;-78
2021/09/07 09:07:02;;;;;;;15.80;10.60;;;;;;;23.97;39.04;101210.61;116403;1193;22231;-78
2021/09/07 09:09:38;;;;;;;20.80;10.80;;;;;;;24.22;38.41;101213.09;116263;1196;23740;-78
2021/09/07 09:12:08;;;;;;;17.30;9.70;;;;;;;24.30;37.92;101215.75;116347;1194;21907;-78
2021/09/07 09:14:47;;;;;;;18.30;10.20;;;;;;;24.37;38.33;101218.91;116241;1195;22913;-79
2021/09/07 09:17:19;;;;;;;17.30;10.30;;;;;;;24.48;37.87;101220.95;116305;1192;23451;-79
2021/09/07 09:19:54;;;;;;;12.00;9.90;;;;;;;24.49;37.50;101223.35;116399;1193;22916;-77
2021/09/07 09:22:51;;;;;;;12.10;9.50;;;;;;;24.41;37.33;101227.98;116415;1193;21881;-79
2021/09/07 09:25:20;;;;;;;13.70;9.70;;;;;;;24.31;37.57;101224.35;115951;1198;21984;-79
2021/09/07 09:27:56;;;;;;;12.70;10.50;;;;;;;24.35;38.33;101224.55;116329;1196;22979;-78
2021/09/07 09:30:46;;;;;;;15.60;11.80;;;;;;;24.53;38.00;101225.64;116216;1193;22404;-78
2021/09/07 09:33:28;;;;;;;11.40;9.90;;;;;;;24.65;37.59;101226.59;116125;1197;22940;-78
2021/09/07 09:36:02;;;;;;;15.70;10.30;;;;;;;24.77;37.62;101226.08;116149;1195;21945;-77
2021/09/07 09:38:35;;;;;;;15.10;11.70;;;;;;;24.96;37.75;101228.54;116130;1196;21886;-77
2021/09/07 09:41:08;;;;;;;14.40;9.90;;;;;;;25.07;36.84;101224.46;116181;1195;21984;-76
2021/09/07 09:43:44;;;;;;;16.80;11.50;;;;;;;25.09;36.85;101220.13;116347;1191;21895;-78
2021/09/07 09:46:27;;;;;;;14.00;10.80;;;;;;;25.12;37.06;101219.55;116540;1190;21894;-76
2021/09/07 09:49:14;;;;;;;13.00;9.90;;;;;;;25.14;36.71;101221.63;116668;1190;21884;-77
2021/09/07 09:51:44;;;;;;;13.10;10.20;;;;;;;25.09;36.87;101221.88;116357;1193;21899;-77
2021/09/07 09:54:30;;;;;;;15.60;10.60;;;;;;;25.18;37.02;101222.67;116342;1190;22144;-77
2021/09/07 09:57:05;;;;;;;16.20;10.20;;;;;;;25.34;37.29;101220.41;116412;1193;22938;-78
2021/09/07 09:59:34;;;;;;;12.70;10.30;;;;;;;25.56;36.56;101224.66;116363;1193;21914;-76
2021/09/07 10:02:05;;;;;;;14.90;10.50;;;;;;;25.52;36.08;101224.27;116448;1193;23504;-79
2021/09/07 10:04:35;;;;;;;;;;;;;;;25.47;36.38;101221.10;116213;1197;24245;-80
2021/09/07 10:07:07;;;;;;;14.00;11.60;;;;;;;25.43;36.59;101218.34;116431;1196;22850;-76
2021/09/07 10:09:38;;;;;;;12.60;11.30;;;;;;;25.40;36.65;101223.48;116626;1193;21929;-78
2021/09/07 10:12:43;;;;;;;15.50;11.50;;;;;;;25.39;36.79;101222.28;116813;1190;21895;-76
2021/09/07 10:15:37;;;;;;;12.90;10.70;;;;;;;25.30;36.39;101224.35;116547;1190;24274;-75
2021/09/07 10:21:06;;;;;;;12.10;10.50;;;;;;;25.28;37.64;101215.55;115947;1195;21934;-76
2021/09/07 10:26:40;;;;;;;14.50;11.50;;;;;;;25.58;37.01;101209.55;116124;1195;22626;-75
2021/09/07 10:29:10;;;;;;;13.20;10.90;;;;;;;25.34;35.76;101207.25;116142;1192;22608;-76
2021/09/07 10:31:43;;;;;;;13.90;11.50;;;;;;;24.95;36.62;101210.08;116320;1193;21900;-75
2021/09/07 10:34:24;;;;;;;14.20;11.80;;;;;;;24.80;37.81;101213.80;116300;1190;23453;-76
2021/09/07 10:37:08;;;;;;;15.60;10.70;;;;;;;24.93;38.29;101210.59;116273;1193;22754;-76
2021/09/07 10:39:43;;;;;;;16.40;11.10;;;;;;;25.17;37.91;101210.61;116414;1193;22252;-76
2021/09/07 10:42:34;;;;;;;16.80;12.40;;;;;;;25.12;37.16;101207.74;116311;1193;21889;-76
2021/09/07 10:45:05;;;;;;;14.80;11.50;;;;;;;24.92;37.48;101211.58;116345;1190;21930;-76
2021/09/07 10:47:45;;;;;;;16.20;12.20;;;;;;;24.73;37.76;101209.02;116443;1192;22596;-76
2021/09/07 10:50:16;;;;;;;13.50;11.20;;;;;;;24.50;37.93;101205.04;116421;1191;21885;-74
2021/09/07 10:52:46;;;;;;;16.70;12.00;;;;;;;24.23;38.29;101197.73;116263;1191;21902;-76
2021/09/07 10:55:17;;;;;;;19.40;10.80;;;;;;;23.92;38.61;101201.70;116063;1195;21990;-76
2021/09/07 10:57:52;;;;;;;20.50;12.20;;;;;;;23.68;39.52;101200.32;116085;1198;23167;-76
2021/09/07 11:00:21;;;;;;;13.50;11.20;;;;;;;23.52;39.76;101195.98;115471;1197;22358;-75
2021/09/07 11:03:03;;;;;;;15.30;11.10;;;;;;;23.32;40.23;101191.52;115455;1201;23006;-77
2021/09/07 11:05:40;;;;;;;21.10;11.80;;;;;;;23.22;40.78;101193.38;115446;1200;23494;-76
2021/09/07 11:08:35;;;;;;;22.60;12.10;;;;;;;23.13;41.30;101194.59;115087;1204;21910;-75
2021/09/07 11:11:31;;;;;;;13.70;12.20;;;;;;;22.98;41.25;101193.54;115204;1202;23056;-75
2021/09/07 11:14:10;;;;;;;13.60;10.80;;;;;;;22.80;41.56;101193.48;115346;1201;21962;-76
2021/09/07 11:16:39;;;;;;;15.30;12.00;;;;;;;22.65;41.76;101193.71;115628;1201;22728;-75
2021/09/07 11:19:12;;;;;;;17.70;12.80;;;;;;;22.57;42.10;101194.69;115938;1194;21981;-76
2021/09/07 11:21:42;;;;;;;17.70;13.00;;;;;;;22.47;42.29;101198.27;116100;1193;22873;-75
2021/09/07 11:24:19;;;;;;;14.40;12.20;;;;;;;22.43;42.87;101197.46;116129;1193;21900;-75
2021/09/07 11:27:07;;;;;;;15.70;12.40;;;;;;;22.39;42.70;101193.63;116218;1197;22018;-78
2021/09/07 11:29:42;;;;;;;19.10;12.30;;;;;;;22.35;43.21;101195.95;116235;1195;21858;-75
2021/09/07 11:32:23;;;;;;;17.60;11.50;;;;;;;22.42;43.28;101193.55;115616;1200;21897;-75
2021/09/07 11:35:09;;;;;;;15.30;12.60;;;;;;;22.43;43.27;101191.45;115813;1197;22621;-76
2021/09/07 11:37:39;;;;;;;16.80;13.00;;;;;;;22.46;43.45;101191.38;116081;1197;21895;-79
2021/09/07 11:40:13;;;;;;;14.60;11.00;;;;;;;22.47;43.19;101195.00;116134;1191;23476;-79
2021/09/07 11:42:48;;;;;;;19.50;12.20;;;;;;;22.48;43.54;101193.02;115544;1200;22504;-79
2021/09/07 11:45:30;;;;;;;12.50;10.30;;;;;;;22.54;43.63;101196.91;116045;1198;22161;-79
2021/09/07 11:48:04;;;;;;;12.20;10.70;;;;;;;22.57;43.52;101198.88;115841;1198;22636;-79
2021/09/07 11:50:39;;;;;;;12.50;11.00;;;;;;;22.55;43.34;101198.23;115976;1193;22064;-77
2021/09/07 11:53:12;;;;;;;13.60;10.30;;;;;;;22.52;43.40;101195.25;116614;1192;21912;-78
2021/09/07 11:55:54;;;;;;;15.50;12.30;;;;;;;22.50;43.62;101193.30;116404;1192;24375;-77
2021/09/07 11:58:38;;;;;;;13.10;11.10;;;;;;;22.47;43.42;101195.86;116399;1196;21898;-79
2021/09/07 12:01:28;;;;;;;14.10;11.70;;;;;;;22.39;43.50;101193.36;116249;1194;21975;-79
2021/09/07 12:03:58;;;;;;;;;;;;;;;22.36;43.75;101190.42;116539;1189;21997;-79
2021/09/07 12:06:36;;;;;;;12.10;10.80;;;;;;;22.29;43.98;101189.10;116490;1192;21906;-78
2021/09/07 12:09:17;;;;;;;13.80;11.40;;;;;;;22.27;44.18;101189.70;116546;1193;21840;-79